Curry Rivel, United Kingdom
Current Conditions -  °F | °C
As of 10:14 AM on Friday 24 Oct 2014 (Local Time) from EGDY Reporting Station
Broken Clouds Broken Clouds  
Wind Chill: 61°   Ceiling: 7000
Heat Index: 61°   Visibility: 6mi
Dew Point: 57°   Wind: 10mph
Humidity: 88%   Direction: 210°SSW
Pressure: 29.94"   Gusts: NA
Location:  51.02°N, 2.87°W
Report Text: EGDY 240914Z 21009KT 9999 FEW010 SCT020 BKN070 16/14 Q1014 WHT TEMPO SCT010 GRN
Loading
Personal Weather Stations






























Interactive Weather Map New forecast layout! Learn more

10-Day Weather Forecast

Advertisements
Track Severe Weather on mobile